Time;durP1;ratioP1;P1;durP2;ratioP2;P2;SDS_P1;SDS_P2;PMS_P1;PMS_P2;Temp;Humidity;BMP_temperature;BMP_pressure;BME280_temperature;BME280_humidity;BME280_pressure;Samples;Min_cycle;Max_cycle;Signal;HPM_P1;HPM_P2
2022/08/01 00:00:14;;;;;;;7.40;3.60;;;29.10;49.30;;;;;;5053692;28;20025;-72
2022/08/01 00:02:40;;;;;;;6.00;3.40;;;29.10;49.10;;;;;;5053111;28;20521;-72
2022/08/01 00:05:07;;;;;;;8.07;3.53;;;29.10;48.80;;;;;;5054343;28;20044;-81
2022/08/01 00:07:36;;;;;;;8.63;3.70;;;29.20;48.50;;;;;;5055804;28;20127;-73
2022/08/01 00:10:09;;;;;;;7.30;3.40;;;29.20;48.30;;;;;;5054679;28;20498;-73
2022/08/01 00:12:34;;;;;;;15.02;4.00;;;29.20;48.00;;;;;;5057567;28;20147;-75
2022/08/01 00:15:00;;;;;;;6.50;3.75;;;29.20;48.00;;;;;;5059595;28;20029;-78
2022/08/01 00:17:26;;;;;;;8.15;4.30;;;29.20;48.10;;;;;;5055500;28;20097;-80
2022/08/01 00:19:52;;;;;;;9.93;4.28;;;29.20;48.00;;;;;;5055826;28;20386;-81
2022/08/01 00:22:17;;;;;;;11.55;3.92;;;29.20;48.10;;;;;;5054349;28;20387;-73
2022/08/01 00:24:43;;;;;;;8.82;3.40;;;29.20;48.40;;;;;;5053675;28;20025;-73
2022/08/01 00:27:09;;;;;;;11.55;3.50;;;29.20;48.20;;;;;;5054086;28;20419;-79
2022/08/01 00:29:35;;;;;;;6.93;3.58;;;29.10;47.70;;;;;;5053002;28;20037;-80
2022/08/01 00:32:00;;;;;;;10.45;3.78;;;29.20;47.60;;;;;;5054209;28;20072;-72
2022/08/01 00:34:26;;;;;;;7.05;3.35;;;29.20;47.70;;;;;;5053509;28;20379;-73
2022/08/01 00:36:52;;;;;;;6.43;3.22;;;29.10;47.50;;;;;;5053446;28;20111;-73
2022/08/01 00:39:17;;;;;;;6.43;3.17;;;29.10;47.40;;;;;;5052693;28;20129;-72
2022/08/01 00:41:43;;;;;;;5.63;3.10;;;29.10;47.10;;;;;;5050916;28;20049;-73
2022/08/01 00:44:09;;;;;;;5.93;3.22;;;29.10;46.70;;;;;;5052867;28;20439;-74
2022/08/01 00:46:34;;;;;;;8.60;2.85;;;29.00;46.60;;;;;;5052504;28;20021;-74
2022/08/01 00:49:03;;;;;;;10.10;3.83;;;29.00;46.30;;;;;;5052596;28;20024;-72
2022/08/01 00:51:29;;;;;;;7.80;2.85;;;29.00;46.10;;;;;;5052588;28;20048;-73
2022/08/01 00:53:55;;;;;;;8.73;2.95;;;29.10;45.90;;;;;;5052599;28;20029;-72
2022/08/01 00:56:23;;;;;;;6.32;2.67;;;29.00;45.60;;;;;;5052437;28;20032;-72
2022/08/01 00:58:49;;;;;;;7.72;2.42;;;29.00;45.60;;;;;;5052493;28;20033;-72
2022/08/01 01:01:15;;;;;;;7.25;2.42;;;28.90;45.70;;;;;;5050990;28;20510;-72
2022/08/01 01:03:41;;;;;;;3.88;2.17;;;28.90;46.00;;;;;;5052422;28;20029;-73
2022/08/01 01:06:36;;;;;;;6.70;2.80;;;28.90;46.10;;;;;;5052368;28;20033;-72
2022/08/01 01:09:07;;;;;;;5.95;2.70;;;28.90;45.40;;;;;;5051326;28;20397;-74
2022/08/01 01:11:46;;;;;;;7.07;3.10;;;28.80;46.20;;;;;;5052261;28;20112;-71
2022/08/01 01:14:23;;;;;;;7.22;2.90;;;28.80;45.50;;;;;;5052295;28;20017;-72
2022/08/01 01:16:50;;;;;;;11.88;6.05;;;28.80;46.50;;;;;;5052208;28;20508;-72
2022/08/01 01:19:23;;;;;;;12.07;6.00;;;28.80;47.10;;;;;;5052380;28;20032;-71
2022/08/01 01:22:08;;;;;;;7.60;4.47;;;28.70;48.50;;;;;;5052114;28;20037;-76
2022/08/01 01:25:02;;;;;;;13.05;4.45;;;28.60;49.70;;;;;;5055048;28;20336;-74
2022/08/01 01:27:49;;;;;;;11.88;4.82;;;28.60;49.30;;;;;;5056018;28;20021;-72
2022/08/01 01:30:16;;;;;;;12.07;5.38;;;28.50;50.10;;;;;;5056145;28;20078;-73
2022/08/01 01:32:45;;;;;;;10.57;5.25;;;28.40;52.50;;;;;;5056235;28;20029;-73
2022/08/01 01:35:17;;;;;;;11.73;5.00;;;28.40;53.00;;;;;;5057290;28;20029;-79
2022/08/01 01:37:45;;;;;;;11.48;4.88;;;28.40;53.40;;;;;;5058041;28;20082;-81
2022/08/01 01:40:12;;;;;;;10.57;4.95;;;28.30;53.60;;;;;;5057464;28;20059;-79
2022/08/01 01:42:39;;;;;;;9.90;4.75;;;28.30;54.00;;;;;;5058144;28;20025;-79
2022/08/01 01:45:06;;;;;;;9.40;4.43;;;28.30;54.40;;;;;;5057099;28;20393;-73
2022/08/01 01:47:33;;;;;;;9.85;4.60;;;28.30;54.60;;;;;;5056799;28;20520;-76
2022/08/01 01:50:01;;;;;;;8.70;4.32;;;28.20;55.00;;;;;;5057118;28;20028;-72
2022/08/01 01:52:27;;;;;;;11.93;5.45;;;28.20;55.50;;;;;;5058487;28;20085;-71
2022/08/01 01:54:55;;;;;;;10.25;4.75;;;28.20;55.60;;;;;;5056710;28;20108;-73
2022/08/01 01:57:22;;;;;;;11.65;5.55;;;28.10;55.80;;;;;;5055931;28;20107;-73
2022/08/01 01:59:50;;;;;;;9.93;4.53;;;28.10;56.10;;;;;;5056153;28;20025;-72
2022/08/01 02:02:17;;;;;;;12.82;4.88;;;28.00;56.30;;;;;;5056000;28;20040;-72
2022/08/01 02:04:53;;;;;;;12.10;4.72;;;28.00;56.50;;;;;;5055821;28;20017;-72
2022/08/01 02:07:22;;;;;;;8.45;4.47;;;28.00;56.90;;;;;;5056020;28;20035;-71
2022/08/01 02:09:48;;;;;;;10.48;4.80;;;27.80;57.50;;;;;;5055936;28;20013;-71
2022/08/01 02:12:17;;;;;;;9.40;4.78;;;27.80;57.50;;;;;;5055974;28;20064;-76
2022/08/01 02:14:44;;;;;;;8.70;4.53;;;27.80;58.10;;;;;;5056124;28;20355;-76
2022/08/01 02:17:15;;;;;;;11.82;4.93;;;27.80;58.10;;;;;;5056709;28;20036;-77
2022/08/01 02:19:42;;;;;;;7.30;4.07;;;27.80;58.10;;;;;;5057846;28;20104;-74
2022/08/01 02:22:21;;;;;;;14.48;8.73;;;27.90;58.20;;;;;;5059482;28;20036;-74
2022/08/01 02:24:57;;;;;;;10.32;4.88;;;27.90;58.70;;;;;;5060633;28;20021;-74
2022/08/01 02:27:33;;;;;;;7.95;4.00;;;27.90;58.10;;;;;;5061603;28;20033;-73
2022/08/01 02:30:07;;;;;;;9.02;4.03;;;27.90;58.60;;;;;;5060610;28;20029;-73
2022/08/01 02:32:41;;;;;;;9.20;4.38;;;27.80;58.90;;;;;;5059504;28;20657;-74
2022/08/01 02:35:13;;;;;;;7.57;4.20;;;27.80;59.00;;;;;;5057794;28;20088;-74
2022/08/01 02:37:41;;;;;;;6.18;3.35;;;27.70;59.20;;;;;;5059911;28;20036;-75
2022/08/01 02:40:09;;;;;;;7.32;3.90;;;27.80;59.10;;;;;;5057821;28;20454;-81
2022/08/01 02:42:37;;;;;;;7.03;3.47;;;27.70;59.10;;;;;;5055704;28;20044;-78
2022/08/01 02:45:05;;;;;;;13.60;3.72;;;27.80;59.50;;;;;;5055053;28;20094;-74
2022/08/01 02:47:35;;;;;;;6.07;3.70;;;27.70;59.30;;;;;;5055147;28;20039;-71
2022/08/01 02:50:02;;;;;;;5.53;3.42;;;27.70;58.80;;;;;;5054992;28;20017;-72
2022/08/01 02:52:31;;;;;;;8.00;3.90;;;27.70;59.30;;;;;;5054832;28;20473;-71
2022/08/01 02:54:58;;;;;;;7.22;3.72;;;27.70;59.40;;;;;;5054699;28;20036;-74
2022/08/01 02:57:26;;;;;;;9.77;4.20;;;27.70;59.50;;;;;;5054437;28;20025;-72
2022/08/01 02:59:55;;;;;;;8.45;4.25;;;27.70;59.50;;;;;;5054406;28;20053;-71
2022/08/01 03:02:22;;;;;;;8.52;4.63;;;27.70;59.60;;;;;;5055004;28;20532;-72
2022/08/01 03:04:51;;;;;;;7.88;4.05;;;27.70;59.60;;;;;;5054785;28;20017;-72
2022/08/01 03:07:18;;;;;;;7.47;3.90;;;27.70;59.60;;;;;;5054773;28;20024;-73
2022/08/01 03:09:46;;;;;;;8.45;4.28;;;27.70;59.50;;;;;;5054523;28;20528;-74
2022/08/01 03:12:16;;;;;;;7.85;4.00;;;27.70;59.60;;;;;;5054533;28;20189;-72
2022/08/01 03:14:44;;;;;;;6.82;3.70;;;27.70;59.70;;;;;;5054074;28;20466;-72
2022/08/01 03:17:11;;;;;;;7.38;3.55;;;27.70;59.60;;;;;;5054188;28;20037;-71
2022/08/01 03:19:38;;;;;;;5.95;3.75;;;27.60;59.80;;;;;;5054298;28;20021;-73
2022/08/01 03:22:11;;;;;;;8.75;4.00;;;27.60;59.70;;;;;;5054119;28;20401;-72
2022/08/01 03:24:39;;;;;;;6.20;4.00;;;27.60;59.80;;;;;;5053772;28;20123;-76
2022/08/01 03:27:07;;;;;;;6.47;3.72;;;27.60;59.90;;;;;;5053874;28;20470;-72
2022/08/01 03:29:33;;;;;;;6.60;4.10;;;27.50;59.70;;;;;;5053986;28;20070;-76
2022/08/01 03:32:01;;;;;;;6.97;3.90;;;27.60;59.90;;;;;;5054018;28;20121;-72
2022/08/01 03:34:28;;;;;;;7.75;3.60;;;27.50;59.60;;;;;;5053782;28;20021;-70
2022/08/01 03:37:03;;;;;;;8.68;3.78;;;27.50;59.70;;;;;;5053634;28;20029;-73
2022/08/01 03:39:34;;;;;;;7.30;4.00;;;27.40;59.80;;;;;;5054291;28;20017;-76
2022/08/01 03:42:08;;;;;;;6.35;3.67;;;27.40;60.10;;;;;;5054658;28;20412;-81
2022/08/01 03:44:35;;;;;;;;;;;27.50;60.00;;;;;;5055756;28;20029;-77
2022/08/01 03:47:05;;;;;;;8.43;3.40;;;27.50;60.20;;;;;;5054403;28;19905;-80
2022/08/01 03:49:37;;;;;;;8.35;3.42;;;27.40;59.90;;;;;;5055630;28;20469;-80
2022/08/01 03:52:06;;;;;;;6.15;3.40;;;27.40;60.00;;;;;;5053551;28;20108;-71
2022/08/01 03:54:35;;;;;;;9.10;3.58;;;27.40;59.90;;;;;;5053507;28;20526;-80
2022/08/01 03:57:03;;;;;;;10.10;4.30;;;27.30;60.00;;;;;;5053613;28;20032;-73
2022/08/01 03:59:34;;;;;;;7.93;3.67;;;27.20;60.10;;;;;;5054240;28;20021;-76
2022/08/01 04:02:00;;;;;;;9.10;3.60;;;27.20;60.30;;;;;;5055782;28;20041;-79
2022/08/01 04:04:28;;;;;;;7.53;3.33;;;27.10;60.00;;;;;;5054188;28;20486;-71
2022/08/01 04:06:54;;;;;;;8.45;3.60;;;27.00;60.10;;;;;;5054604;28;20084;-76
2022/08/01 04:09:21;;;;;;;11.50;4.10;;;27.00;60.40;;;;;;5053479;28;20108;-76
2022/08/01 04:11:48;;;;;;;8.55;3.50;;;27.00;60.30;;;;;;5052100;28;20036;-71
2022/08/01 04:14:14;;;;;;;8.52;3.50;;;27.00;60.30;;;;;;5053131;28;20136;-72
2022/08/01 04:16:39;;;;;;;10.45;4.53;;;27.00;60.20;;;;;;5053081;28;20029;-74
2022/08/01 04:19:08;;;;;;;7.72;4.32;;;27.00;60.30;;;;;;5053746;28;20021;-72
2022/08/01 04:21:36;;;;;;;8.73;4.40;;;27.00;60.20;;;;;;5051907;28;20041;-75
2022/08/01 04:24:12;;;;;;;9.75;4.60;;;27.00;60.20;;;;;;5053000;28;20017;-74
2022/08/01 04:26:41;;;;;;;8.88;4.13;;;27.00;60.20;;;;;;5052916;28;20454;-71
2022/08/01 04:29:09;;;;;;;9.63;3.95;;;27.00;60.30;;;;;;5052816;28;20111;-72
2022/08/01 04:31:37;;;;;;;8.52;3.75;;;26.90;60.20;;;;;;5053255;28;20463;-73
2022/08/01 04:34:09;;;;;;;10.13;4.32;;;26.90;60.10;;;;;;5052066;28;20029;-73
2022/08/01 04:36:38;;;;;;;9.65;3.90;;;27.00;60.30;;;;;;5052918;28;20032;-73
2022/08/01 04:39:05;;;;;;;8.55;3.70;;;27.00;60.30;;;;;;5051770;28;20021;-75
2022/08/01 04:41:32;;;;;;;11.32;4.18;;;27.00;60.10;;;;;;5052710;28;20077;-78
2022/08/01 04:44:02;;;;;;;11.05;4.03;;;27.00;60.20;;;;;;5053054;28;20497;-74
2022/08/01 04:46:29;;;;;;;10.85;4.50;;;27.00;59.90;;;;;;5053095;28;20021;-72
2022/08/01 04:48:56;;;;;;;9.23;4.35;;;26.90;60.00;;;;;;5053113;28;20037;-75
2022/08/01 04:51:22;;;;;;;8.77;3.85;;;27.00;59.70;;;;;;5054438;28;20032;-72
2022/08/01 04:53:48;;;;;;;10.15;4.05;;;26.90;60.00;;;;;;5054137;28;20028;-71
2022/08/01 04:56:15;;;;;;;8.95;3.92;;;26.90;59.80;;;;;;5053106;28;20021;-74
2022/08/01 04:58:41;;;;;;;12.40;3.67;;;27.00;59.80;;;;;;5056605;28;20021;-72
2022/08/01 05:01:08;;;;;;;12.02;3.65;;;26.90;59.60;;;;;;5057290;28;20076;-71
2022/08/01 05:03:34;;;;;;;6.38;3.25;;;27.00;59.60;;;;;;5055712;28;20450;-75
2022/08/01 05:05:59;;;;;;;6.70;3.50;;;27.00;59.50;;;;;;5055102;28;20029;-72
2022/08/01 05:08:25;;;;;;;9.02;3.40;;;27.00;59.50;;;;;;5056748;28;20409;-74
2022/08/01 05:10:52;;;;;;;12.18;3.60;;;26.90;59.30;;;;;;5056797;28;20107;-73
2022/08/01 05:13:18;;;;;;;7.07;4.00;;;27.00;59.50;;;;;;5056393;28;20032;-74
2022/08/01 05:15:44;;;;;;;8.77;4.00;;;27.00;59.30;;;;;;5056556;28;20111;-75
2022/08/01 05:18:10;;;;;;;6.53;3.40;;;27.00;59.10;;;;;;5054929;28;20071;-73
2022/08/01 05:20:37;;;;;;;8.27;3.60;;;27.10;59.20;;;;;;5057424;28;20017;-72
2022/08/01 05:23:04;;;;;;;8.20;3.92;;;27.30;59.10;;;;;;5057044;28;20052;-71
2022/08/01 05:25:29;;;;;;;9.93;3.80;;;27.40;58.50;;;;;;5056522;28;20021;-74
2022/08/01 05:27:55;;;;;;;11.55;3.85;;;27.50;58.30;;;;;;5055973;28;20043;-74
2022/08/01 05:30:21;;;;;;;8.32;3.53;;;27.80;57.50;;;;;;5057206;28;20024;-72
2022/08/01 05:32:47;;;;;;;11.07;3.70;;;28.10;56.60;;;;;;5057838;28;20067;-73
2022/08/01 05:35:13;;;;;;;8.35;3.65;;;28.60;55.90;;;;;;5056527;28;20136;-79
2022/08/01 05:37:39;;;;;;;11.80;3.83;;;29.00;55.10;;;;;;5055858;28;20470;-75
2022/08/01 05:40:05;;;;;;;6.97;3.40;;;29.30;54.20;;;;;;5055604;28;20025;-76
2022/08/01 05:42:30;;;;;;;8.95;3.50;;;29.60;53.00;;;;;;5055368;28;20127;-77
2022/08/01 05:45:14;;;;;;;6.90;3.20;;;29.90;53.20;;;;;;5044692;28;20017;-77
2022/08/01 05:47:39;;;;;;;6.45;3.42;;;30.10;52.70;;;;;;5047865;28;20064;-75
2022/08/01 05:50:05;;;;;;;11.57;3.20;;;30.40;52.30;;;;;;5052505;28;20122;-78
2022/08/01 05:52:31;;;;;;;12.70;4.15;;;30.60;51.30;;;;;;5050638;28;20017;-79
2022/08/01 05:54:57;;;;;;;8.57;3.42;;;30.70;51.30;;;;;;5055226;28;20033;-77
2022/08/01 05:57:22;;;;;;;10.80;3.95;;;30.90;51.00;;;;;;5055031;28;20027;-75
2022/08/01 05:59:48;;;;;;;7.22;3.58;;;31.20;50.50;;;;;;5054948;28;20026;-78
2022/08/01 06:02:14;;;;;;;10.02;3.65;;;31.40;50.30;;;;;;5054810;28;20312;-76
2022/08/01 06:04:39;;;;;;;25.23;4.07;;;31.60;50.70;;;;;;5051471;28;20033;-76
2022/08/01 06:07:05;;;;;;;24.92;4.45;;;31.70;50.20;;;;;;5046834;28;20098;-75
2022/08/01 06:09:30;;;;;;;11.52;3.85;;;31.80;48.70;;;;;;5037931;28;20028;-77
2022/08/01 06:11:56;;;;;;;16.33;4.30;;;32.00;48.30;;;;;;5034513;28;20025;-74
2022/08/01 06:14:22;;;;;;;13.35;3.60;;;32.30;48.00;;;;;;5034696;28;20437;-73
2022/08/01 06:16:47;;;;;;;10.95;3.33;;;32.60;47.40;;;;;;5034396;28;20021;-74
2022/08/01 06:19:13;;;;;;;7.95;3.50;;;32.60;47.10;;;;;;5034426;28;20037;-73
2022/08/01 06:21:39;;;;;;;14.05;3.33;;;32.80;46.90;;;;;;5034505;28;20056;-74
2022/08/01 06:24:05;;;;;;;12.73;3.42;;;32.80;46.60;;;;;;5034503;28;20064;-73
2022/08/01 06:26:31;;;;;;;10.32;3.05;;;32.60;46.70;;;;;;5034362;28;20021;-73
2022/08/01 06:28:56;;;;;;;10.38;3.65;;;32.60;46.90;;;;;;5034496;28;20025;-70
2022/08/01 06:31:22;;;;;;;8.55;3.20;;;32.70;46.60;;;;;;5039565;28;20021;-70
2022/08/01 06:33:48;;;;;;;6.65;2.90;;;32.90;46.30;;;;;;5034341;28;20140;-71
2022/08/01 06:36:13;;;;;;;8.93;2.90;;;33.00;45.80;;;;;;5034137;28;20048;-70
2022/08/01 06:38:39;;;;;;;11.35;3.03;;;33.10;45.70;;;;;;5034183;28;20391;-71
2022/08/01 06:41:05;;;;;;;10.73;2.92;;;33.20;45.30;;;;;;5034121;28;20038;-74
2022/08/01 06:43:31;;;;;;;13.13;3.40;;;33.30;45.40;;;;;;5034289;28;20036;-71
2022/08/01 06:45:56;;;;;;;14.55;3.25;;;33.40;44.80;;;;;;5034208;28;20071;-73
2022/08/01 06:48:22;;;;;;;9.23;3.35;;;33.30;44.80;;;;;;5034310;28;20037;-71
2022/08/01 06:50:48;;;;;;;13.20;3.40;;;33.20;44.50;;;;;;5034073;28;20029;-72
2022/08/01 06:53:14;;;;;;;11.82;3.28;;;33.30;44.80;;;;;;5034039;28;20083;-73
2022/08/01 06:55:39;;;;;;;9.00;2.83;;;33.30;44.30;;;;;;5034110;28;20025;-71
2022/08/01 06:58:07;;;;;;;10.90;2.92;;;33.40;43.60;;;;;;5034573;28;20064;-78
2022/08/01 07:00:33;;;;;;;10.63;2.70;;;33.30;43.20;;;;;;5033911;28;20022;-72
2022/08/01 07:02:59;;;;;;;10.45;3.50;;;33.30;43.20;;;;;;5038844;28;20083;-76
2022/08/01 07:05:25;;;;;;;7.05;2.72;;;33.30;43.00;;;;;;5033825;28;20025;-76
2022/08/01 07:07:51;;;;;;;9.70;2.97;;;33.30;42.70;;;;;;5033106;28;20408;-76
2022/08/01 07:10:17;;;;;;;9.23;2.88;;;33.50;42.70;;;;;;5032406;28;20061;-75
2022/08/01 07:12:43;;;;;;;8.40;3.17;;;33.60;42.20;;;;;;5032103;28;20026;-74
2022/08/01 07:15:09;;;;;;;10.25;3.47;;;33.70;42.00;;;;;;5031578;28;20064;-72
2022/08/01 07:17:40;;;;;;;8.75;2.72;;;33.90;42.10;;;;;;5032929;28;20112;-75
2022/08/01 07:20:10;;;;;;;12.23;2.70;;;34.00;41.60;;;;;;5032828;28;20025;-74
2022/08/01 07:22:37;;;;;;;9.82;2.60;;;34.10;41.40;;;;;;5032016;28;20025;-75
2022/08/01 07:25:05;;;;;;;24.25;4.78;;;34.00;41.20;;;;;;5032682;28;20025;-73
2022/08/01 07:27:30;;;;;;;12.32;3.10;;;34.10;41.40;;;;;;5032785;28;20030;-73
2022/08/01 07:29:56;;;;;;;14.05;2.80;;;33.90;41.20;;;;;;5031231;28;20032;-74
2022/08/01 07:32:22;;;;;;;17.67;3.58;;;33.90;41.30;;;;;;5033004;28;20030;-73
2022/08/01 07:34:48;;;;;;;12.60;2.97;;;34.00;41.30;;;;;;5033074;28;20025;-74
2022/08/01 07:37:14;;;;;;;9.32;3.05;;;33.90;40.80;;;;;;5032411;28;20086;-76
2022/08/01 07:39:39;;;;;;;8.75;2.75;;;33.90;41.00;;;;;;5032572;28;20033;-74
2022/08/01 07:42:05;;;;;;;11.93;2.83;;;34.00;41.00;;;;;;5032354;28;20180;-73
2022/08/01 07:44:31;;;;;;;16.48;3.28;;;34.20;40.80;;;;;;5032525;28;20026;-73
2022/08/01 07:46:56;;;;;;;12.52;2.88;;;34.10;40.60;;;;;;5032865;28;20030;-74
2022/08/01 07:49:22;;;;;;;11.73;2.90;;;34.10;40.70;;;;;;5032407;28;20063;-73
2022/08/01 07:51:48;;;;;;;15.57;3.03;;;34.10;40.60;;;;;;5032388;28;20348;-73
2022/08/01 07:54:15;;;;;;;7.05;2.40;;;33.90;40.40;;;;;;5032094;28;20052;-74
2022/08/01 07:56:41;;;;;;;13.65;3.40;;;33.90;40.50;;;;;;5032273;28;20018;-74
2022/08/01 07:59:06;;;;;;;9.27;2.72;;;33.80;40.40;;;;;;5032092;28;20109;-74
2022/08/01 08:01:32;;;;;;;10.10;2.42;;;33.80;40.60;;;;;;5031993;28;20088;-73
2022/08/01 08:03:58;;;;;;;18.30;2.95;;;33.70;40.40;;;;;;5030837;28;20030;-73
2022/08/01 08:06:23;;;;;;;18.52;3.22;;;33.60;40.60;;;;;;5030933;28;20033;-74
2022/08/01 08:08:49;;;;;;;11.05;2.80;;;33.70;41.00;;;;;;5032354;28;20040;-74
2022/08/01 08:11:15;;;;;;;10.00;2.50;;;33.70;40.30;;;;;;5032537;28;20018;-80
2022/08/01 08:13:41;;;;;;;4.40;2.20;;;33.60;40.10;;;;;;5032310;28;20398;-73
2022/08/01 08:16:06;;;;;;;6.07;2.17;;;33.50;39.90;;;;;;5031748;28;20375;-75
2022/08/01 08:18:32;;;;;;;9.45;3.30;;;33.50;39.70;;;;;;5032550;28;20040;-74
2022/08/01 08:20:58;;;;;;;11.15;2.85;;;33.40;39.70;;;;;;5032701;28;20077;-74
2022/08/01 08:26:08;;;;;;;10.15;2.25;;;33.30;40.20;;;;;;5032152;28;20501;-72
2022/08/01 08:28:33;;;;;;;7.60;2.10;;;33.20;39.80;;;;;;5032144;28;20030;-74
2022/08/01 08:30:59;;;;;;;11.00;2.35;;;33.10;39.70;;;;;;5032128;28;20018;-72
2022/08/01 08:33:25;;;;;;;10.60;2.33;;;33.00;39.70;;;;;;5030186;28;20363;-74
2022/08/01 08:35:50;;;;;;;9.13;2.67;;;32.90;39.90;;;;;;5031687;28;20093;-74
2022/08/01 08:38:16;;;;;;;8.43;2.60;;;32.90;40.30;;;;;;5031971;28;20026;-74
2022/08/01 08:40:42;;;;;;;7.45;2.60;;;32.90;40.00;;;;;;5031699;28;20394;-72
2022/08/01 08:43:10;;;;;;;10.18;2.40;;;32.90;39.90;;;;;;5030360;28;20072;-78
2022/08/01 08:45:35;;;;;;;8.93;2.05;;;33.00;39.90;;;;;;5030059;28;20025;-73
2022/08/01 08:48:01;;;;;;;12.18;2.40;;;32.90;39.60;;;;;;5031826;28;20482;-75
2022/08/01 08:50:28;;;;;;;7.13;2.40;;;32.90;39.50;;;;;;5031728;28;20105;-75
2022/08/01 08:52:56;;;;;;;5.30;2.00;;;32.90;39.10;;;;;;5033358;28;20033;-73
2022/08/01 08:55:23;;;;;;;3.85;2.15;;;32.80;38.90;;;;;;5032191;28;20108;-75
2022/08/01 08:57:49;;;;;;;7.15;2.50;;;32.70;39.10;;;;;;5032386;28;20374;-74
2022/08/01 09:00:16;;;;;;;6.72;2.00;;;32.70;39.20;;;;;;5032214;28;20025;-74
2022/08/01 09:02:46;;;;;;;7.05;2.42;;;32.80;39.00;;;;;;5031785;28;20053;-74
2022/08/01 09:05:12;;;;;;;12.48;2.72;;;32.70;38.70;;;;;;5032034;28;20429;-75
2022/08/01 09:07:38;;;;;;;7.70;2.58;;;32.60;39.00;;;;;;5032314;28;20052;-76
2022/08/01 09:10:05;;;;;;;8.98;2.40;;;32.60;38.90;;;;;;5032365;28;20467;-75
2022/08/01 09:12:31;;;;;;;6.53;2.20;;;32.60;39.40;;;;;;5032163;28;20471;-75
2022/08/01 09:14:57;;;;;;;6.50;2.75;;;32.60;38.90;;;;;;5032101;28;20034;-73
2022/08/01 09:17:23;;;;;;;5.53;2.40;;;32.70;39.00;;;;;;5030830;28;20027;-74
2022/08/01 09:19:51;;;;;;;6.03;2.13;;;32.80;38.80;;;;;;5032121;28;20030;-74
2022/08/01 09:22:21;;;;;;;7.05;2.08;;;32.70;38.60;;;;;;5032354;28;20498;-74
2022/08/01 09:25:09;;;;;;;5.07;2.10;;;32.80;38.30;;;;;;5032311;28;20030;-75
2022/08/01 09:27:37;;;;;;;4.90;2.00;;;32.80;39.00;;;;;;5031666;28;20331;-76
2022/08/01 09:30:15;;;;;;;4.60;1.85;;;32.80;37.50;;;;;;5031492;28;20406;-74
2022/08/01 09:32:54;;;;;;;5.55;1.75;;;32.90;37.80;;;;;;5031586;28;20472;-77
2022/08/01 09:35:24;;;;;;;8.75;2.40;;;32.90;36.20;;;;;;5031429;28;20467;-74
2022/08/01 09:37:49;;;;;;;4.75;2.55;;;32.80;36.50;;;;;;5031744;28;20029;-78
2022/08/01 09:40:15;;;;;;;8.88;2.10;;;32.80;36.80;;;;;;5031987;28;20033;-76
2022/08/01 09:42:41;;;;;;;5.25;1.80;;;32.80;36.90;;;;;;5032058;28;20479;-75
2022/08/01 09:45:07;;;;;;;6.50;2.20;;;32.90;36.70;;;;;;5034101;28;20025;-78
2022/08/01 09:47:39;;;;;;;4.53;2.00;;;32.90;36.80;;;;;;5035495;28;20064;-77
2022/08/01 09:50:06;;;;;;;3.70;1.80;;;33.10;36.20;;;;;;5035491;28;20040;-77
2022/08/01 09:52:32;;;;;;;5.07;1.80;;;33.10;36.10;;;;;;5035689;28;20383;-76
2022/08/01 09:55:01;;;;;;;7.50;2.20;;;33.10;36.00;;;;;;5035264;28;20033;-74
2022/08/01 09:57:29;;;;;;;6.45;1.80;;;33.20;35.50;;;;;;5034145;28;20025;-77
2022/08/01 09:59:56;;;;;;;3.40;1.48;;;33.20;34.70;;;;;;5035178;28;20021;-78
2022/08/01 10:02:31;;;;;;;4.28;1.80;;;33.30;34.40;;;;;;5035202;28;20087;-77
2022/08/01 10:04:56;;;;;;;4.72;1.75;;;33.20;34.30;;;;;;5035129;28;21511;-74
2022/08/01 10:07:22;;;;;;;3.88;1.60;;;33.20;34.30;;;;;;5035047;28;20324;-75
2022/08/01 10:09:48;;;;;;;5.75;1.73;;;33.20;34.20;;;;;;5036130;28;20104;-73
2022/08/01 10:12:18;;;;;;;4.28;1.83;;;33.20;34.00;;;;;;5035342;28;20038;-73
2022/08/01 10:14:46;;;;;;;7.45;4.05;;;33.20;34.10;;;;;;5034855;28;20033;-74
2022/08/01 10:17:15;;;;;;;10.50;3.75;;;33.30;34.10;;;;;;5034997;28;20469;-76
2022/08/01 10:19:43;;;;;;;5.68;2.00;;;33.30;34.00;;;;;;5034792;28;20022;-76
2022/08/01 10:22:17;;;;;;;7.38;1.80;;;33.30;34.10;;;;;;5034560;28;20098;-74
2022/08/01 10:24:45;;;;;;;5.90;1.98;;;33.50;34.40;;;;;;5034461;28;20107;-74
2022/08/01 10:27:13;;;;;;;9.35;1.55;;;33.50;33.80;;;;;;5034639;28;20026;-73
2022/08/01 10:30:03;;;;;;;7.45;1.85;;;33.60;33.80;;;;;;5034758;28;20029;-73
2022/08/01 10:32:33;;;;;;;3.80;1.70;;;33.50;35.30;;;;;;5034493;28;20032;-74
2022/08/01 10:35:00;;;;;;;4.40;2.05;;;33.60;34.20;;;;;;5034794;28;20021;-77
2022/08/01 10:37:26;;;;;;;4.00;1.50;;;33.60;34.20;;;;;;5034592;28;20124;-75
2022/08/01 10:39:53;;;;;;;5.57;1.88;;;33.60;33.80;;;;;;5034219;28;20017;-75
2022/08/01 10:42:19;;;;;;;4.80;1.70;;;33.60;34.00;;;;;;5033748;28;20086;-74
2022/08/01 10:44:47;;;;;;;4.80;2.10;;;33.70;34.30;;;;;;5034107;28;20168;-74
2022/08/01 10:47:21;;;;;;;4.45;1.70;;;33.80;34.50;;;;;;5033760;28;20038;-74
2022/08/01 10:50:19;;;;;;;6.15;1.90;;;33.90;34.30;;;;;;5033600;28;20075;-76
2022/08/01 10:53:12;;;;;;;6.25;1.90;;;34.00;34.50;;;;;;5033921;28;20083;-74
2022/08/01 10:55:54;;;;;;;7.93;2.10;;;34.10;34.80;;;;;;5032342;28;20537;-75
2022/08/01 10:58:21;;;;;;;5.07;1.90;;;34.10;35.10;;;;;;5033887;28;20029;-73
2022/08/01 11:00:47;;;;;;;6.90;1.90;;;34.10;35.00;;;;;;5033805;28;20041;-73
2022/08/01 11:03:13;;;;;;;10.43;1.90;;;34.10;34.90;;;;;;5033488;28;20033;-75
2022/08/01 11:05:41;;;;;;;4.75;1.73;;;34.10;35.00;;;;;;5033503;28;20543;-73
2022/08/01 11:08:21;;;;;;;3.00;1.88;;;34.20;35.30;;;;;;5033421;28;20021;-72
2022/08/01 11:10:47;;;;;;;6.55;1.80;;;34.20;35.10;;;;;;5033609;28;20117;-73
2022/08/01 11:13:13;;;;;;;9.15;1.75;;;34.30;34.80;;;;;;5033727;28;20402;-73
2022/08/01 11:15:41;;;;;;;5.57;1.60;;;34.20;34.80;;;;;;5033368;28;20466;-73
2022/08/01 11:18:32;;;;;;;6.95;2.65;;;34.30;34.90;;;;;;5033380;28;20017;-73
2022/08/01 11:21:02;;;;;;;3.17;1.65;;;34.20;35.50;;;;;;5033503;28;20435;-74
2022/08/01 11:23:46;;;;;;;5.93;1.80;;;34.20;34.70;;;;;;5033524;28;20034;-74
2022/08/01 11:26:13;;;;;;;4.70;1.75;;;34.20;35.40;;;;;;5033588;28;20360;-72
2022/08/01 11:28:40;;;;;;;5.90;1.60;;;34.20;34.80;;;;;;5033447;28;20048;-74
2022/08/01 11:31:08;;;;;;;4.90;1.75;;;34.30;34.90;;;;;;5033100;28;20037;-74
2022/08/01 11:33:44;;;;;;;4.07;1.63;;;34.30;34.80;;;;;;5033138;28;20021;-73
2022/08/01 11:36:13;;;;;;;3.85;1.55;;;34.40;35.00;;;;;;5033254;28;20467;-73
2022/08/01 11:38:42;;;;;;;9.70;1.98;;;34.40;34.60;;;;;;5033085;28;20036;-73
2022/08/01 11:41:31;;;;;;;5.18;1.67;;;34.40;34.70;;;;;;5033051;28;20045;-74
2022/08/01 11:43:58;;;;;;;7.07;1.60;;;34.50;34.90;;;;;;5033392;28;20061;-74
2022/08/01 11:46:48;;;;;;;7.00;1.42;;;34.60;34.40;;;;;;5033367;28;20052;-74
2022/08/01 11:49:37;;;;;;;4.15;1.40;;;34.60;34.60;;;;;;5033507;28;20053;-74
2022/08/01 11:52:09;;;;;;;6.82;1.80;;;34.60;34.40;;;;;;5033649;28;20119;-73
2022/08/01 11:54:38;;;;;;;6.22;1.40;;;34.60;34.00;;;;;;5033164;28;20056;-75
2022/08/01 11:57:14;;;;;;;4.45;1.75;;;34.60;34.10;;;;;;5033460;28;20037;-74
2022/08/01 11:59:50;;;;;;;5.45;1.80;;;34.70;34.00;;;;;;5032716;28;20609;-74
2022/08/01 12:02:21;;;;;;;3.40;1.52;;;34.80;34.30;;;;;;5033038;28;20037;-73
2022/08/01 12:04:53;;;;;;;4.95;1.65;;;34.80;33.90;;;;;;5032925;28;20486;-74
2022/08/01 12:07:21;;;;;;;4.57;1.73;;;34.80;35.60;;;;;;5031241;28;20335;-73
2022/08/01 12:09:47;;;;;;;3.38;1.95;;;34.80;34.20;;;;;;5032944;28;20025;-73
2022/08/01 12:12:17;;;;;;;3.05;1.67;;;34.80;34.10;;;;;;5031269;28;20103;-74
2022/08/01 12:14:45;;;;;;;4.88;1.52;;;34.80;34.30;;;;;;5032206;28;20112;-74
2022/08/01 12:17:11;;;;;;;4.95;1.70;;;34.90;34.20;;;;;;5032362;28;20097;-74
2022/08/01 12:19:37;;;;;;;5.53;1.60;;;34.90;34.10;;;;;;5032269;28;20113;-74
2022/08/01 12:22:06;;;;;;;4.25;1.50;;;35.00;34.10;;;;;;5032162;28;20038;-75
2022/08/01 12:24:37;;;;;;;4.97;1.60;;;35.00;34.20;;;;;;5032407;28;20419;-74
2022/08/01 12:27:04;;;;;;;3.40;1.63;;;35.00;33.80;;;;;;5030709;28;20029;-74
2022/08/01 12:29:40;;;;;;;4.07;1.50;;;34.90;33.60;;;;;;5030723;28;20032;-74
2022/08/01 12:32:35;;;;;;;3.97;1.58;;;35.00;34.10;;;;;;5032085;28;20124;-74
2022/08/01 12:35:13;;;;;;;4.60;1.85;;;35.00;34.20;;;;;;5032343;28;20022;-75
2022/08/01 12:37:50;;;;;;;5.88;1.88;;;35.10;34.30;;;;;;5032281;28;20093;-75
2022/08/01 12:40:22;;;;;;;5.10;2.10;;;35.10;34.20;;;;;;5031878;28;20018;-74
2022/08/01 12:42:53;;;;;;;3.15;1.73;;;35.20;34.40;;;;;;5032176;28;20033;-75
2022/08/01 12:45:23;;;;;;;6.55;1.98;;;35.20;34.20;;;;;;5032290;28;20075;-74
2022/08/01 12:47:50;;;;;;;3.67;1.70;;;35.20;34.20;;;;;;5031961;28;20499;-73
2022/08/01 12:50:21;;;;;;;5.85;1.45;;;35.20;34.20;;;;;;5031983;28;20028;-73
2022/08/01 12:52:48;;;;;;;3.80;1.40;;;35.20;34.70;;;;;;5031842;28;20025;-73